sensor_id;sensor_type;location;lat;lon;timestamp;P1;durP1;ratioP1;P2;durP2;ratioP2
17658;SDS011;8948;51.534;8.262;2022-08-19T00:02:13;15.80;;;10.35;;
17658;SDS011;8948;51.534;8.262;2022-08-19T00:07:13;17.40;;;11.13;;
17658;SDS011;8948;51.534;8.262;2022-08-19T00:12:14;11.60;;;9.50;;
17658;SDS011;8948;51.534;8.262;2022-08-19T00:17:15;15.63;;;10.43;;
17658;SDS011;8948;51.534;8.262;2022-08-19T00:22:15;18.00;;;10.65;;
17658;SDS011;8948;51.534;8.262;2022-08-19T00:27:17;10.55;;;9.25;;
17658;SDS011;8948;51.534;8.262;2022-08-19T00:32:18;14.27;;;10.98;;
17658;SDS011;8948;51.534;8.262;2022-08-19T00:37:20;14.32;;;11.15;;
17658;SDS011;8948;51.534;8.262;2022-08-19T00:42:23;15.95;;;11.40;;
17658;SDS011;8948;51.534;8.262;2022-08-19T00:47:23;21.88;;;11.90;;
17658;SDS011;8948;51.534;8.262;2022-08-19T00:52:26;13.30;;;10.85;;
17658;SDS011;8948;51.534;8.262;2022-08-19T00:57:31;13.38;;;10.07;;
17658;SDS011;8948;51.534;8.262;2022-08-19T01:02:36;19.67;;;11.35;;
17658;SDS011;8948;51.534;8.262;2022-08-19T01:07:37;12.35;;;10.70;;
17658;SDS011;8948;51.534;8.262;2022-08-19T01:12:40;16.38;;;12.18;;
17658;SDS011;8948;51.534;8.262;2022-08-19T01:17:41;18.00;;;10.63;;
17658;SDS011;8948;51.534;8.262;2022-08-19T01:22:44;20.48;;;11.43;;
17658;SDS011;8948;51.534;8.262;2022-08-19T01:27:46;20.67;;;12.75;;
17658;SDS011;8948;51.534;8.262;2022-08-19T01:32:49;17.63;;;12.93;;
17658;SDS011;8948;51.534;8.262;2022-08-19T01:37:52;16.00;;;11.48;;
17658;SDS011;8948;51.534;8.262;2022-08-19T01:43:01;19.00;;;12.40;;
17658;SDS011;8948;51.534;8.262;2022-08-19T01:48:03;20.00;;;13.05;;
17658;SDS011;8948;51.534;8.262;2022-08-19T01:53:05;18.67;;;14.23;;
17658;SDS011;8948;51.534;8.262;2022-08-19T01:58:11;17.52;;;11.98;;
17658;SDS011;8948;51.534;8.262;2022-08-19T02:03:14;17.55;;;12.38;;
17658;SDS011;8948;51.534;8.262;2022-08-19T02:08:15;17.33;;;12.63;;
17658;SDS011;8948;51.534;8.262;2022-08-19T02:13:16;15.70;;;13.20;;
17658;SDS011;8948;51.534;8.262;2022-08-19T02:18:17;21.20;;;13.80;;
17658;SDS011;8948;51.534;8.262;2022-08-19T02:23:17;19.50;;;14.60;;
17658;SDS011;8948;51.534;8.262;2022-08-19T02:28:18;18.85;;;14.02;;
17658;SDS011;8948;51.534;8.262;2022-08-19T02:33:19;25.05;;;15.65;;
17658;SDS011;8948;51.534;8.262;2022-08-19T02:38:19;15.82;;;13.32;;
17658;SDS011;8948;51.534;8.262;2022-08-19T02:43:26;19.65;;;13.98;;
17658;SDS011;8948;51.534;8.262;2022-08-19T02:48:28;18.88;;;14.27;;
17658;SDS011;8948;51.534;8.262;2022-08-19T02:53:29;17.20;;;14.52;;
17658;SDS011;8948;51.534;8.262;2022-08-19T02:58:29;17.70;;;14.73;;
17658;SDS011;8948;51.534;8.262;2022-08-19T03:03:30;22.98;;;15.82;;
17658;SDS011;8948;51.534;8.262;2022-08-19T03:08:31;21.08;;;15.43;;
17658;SDS011;8948;51.534;8.262;2022-08-19T03:13:32;17.92;;;14.95;;
17658;SDS011;8948;51.534;8.262;2022-08-19T03:18:33;20.95;;;14.90;;
17658;SDS011;8948;51.534;8.262;2022-08-19T03:23:34;15.13;;;10.38;;
17658;SDS011;8948;51.534;8.262;2022-08-19T03:28:35;20.27;;;13.70;;
17658;SDS011;8948;51.534;8.262;2022-08-19T03:33:36;19.65;;;14.32;;
17658;SDS011;8948;51.534;8.262;2022-08-19T03:38:39;18.50;;;11.57;;
17658;SDS011;8948;51.534;8.262;2022-08-19T03:43:42;10.48;;;8.45;;
17658;SDS011;8948;51.534;8.262;2022-08-19T03:48:46;15.55;;;12.32;;
17658;SDS011;8948;51.534;8.262;2022-08-19T03:53:48;10.95;;;9.52;;
17658;SDS011;8948;51.534;8.262;2022-08-19T03:58:48;19.70;;;12.65;;
17658;SDS011;8948;51.534;8.262;2022-08-19T04:03:49;15.05;;;9.65;;
17658;SDS011;8948;51.534;8.262;2022-08-19T04:08:51;17.15;;;10.48;;
17658;SDS011;8948;51.534;8.262;2022-08-19T04:13:54;16.08;;;12.85;;
17658;SDS011;8948;51.534;8.262;2022-08-19T04:18:56;14.57;;;12.15;;
17658;SDS011;8948;51.534;8.262;2022-08-19T04:23:59;17.83;;;14.05;;
17658;SDS011;8948;51.534;8.262;2022-08-19T04:29:05;21.48;;;15.05;;
17658;SDS011;8948;51.534;8.262;2022-08-19T04:34:08;22.27;;;15.98;;
17658;SDS011;8948;51.534;8.262;2022-08-19T04:39:14;23.85;;;16.30;;
17658;SDS011;8948;51.534;8.262;2022-08-19T04:44:16;19.92;;;14.70;;
17658;SDS011;8948;51.534;8.262;2022-08-19T04:49:20;23.38;;;16.77;;
17658;SDS011;8948;51.534;8.262;2022-08-19T04:54:23;22.17;;;16.77;;
17658;SDS011;8948;51.534;8.262;2022-08-19T04:59:25;25.42;;;16.63;;
17658;SDS011;8948;51.534;8.262;2022-08-19T05:04:25;23.17;;;15.35;;
17658;SDS011;8948;51.534;8.262;2022-08-19T05:09:26;25.85;;;16.60;;
17658;SDS011;8948;51.534;8.262;2022-08-19T05:14:28;30.58;;;18.77;;
17658;SDS011;8948;51.534;8.262;2022-08-19T05:19:29;26.55;;;18.40;;
17658;SDS011;8948;51.534;8.262;2022-08-19T05:24:48;27.45;;;19.20;;
17658;SDS011;8948;51.534;8.262;2022-08-19T05:29:48;26.55;;;18.92;;
17658;SDS011;8948;51.534;8.262;2022-08-19T05:34:49;25.83;;;17.33;;
17658;SDS011;8948;51.534;8.262;2022-08-19T05:39:50;25.75;;;19.90;;
17658;SDS011;8948;51.534;8.262;2022-08-19T05:44:50;34.42;;;22.17;;
17658;SDS011;8948;51.534;8.262;2022-08-19T05:49:51;33.35;;;22.80;;
17658;SDS011;8948;51.534;8.262;2022-08-19T05:54:52;30.35;;;20.83;;
17658;SDS011;8948;51.534;8.262;2022-08-19T05:59:55;32.28;;;23.38;;
17658;SDS011;8948;51.534;8.262;2022-08-19T06:04:57;31.23;;;20.83;;
17658;SDS011;8948;51.534;8.262;2022-08-19T06:09:58;38.53;;;23.42;;
17658;SDS011;8948;51.534;8.262;2022-08-19T06:14:59;23.70;;;15.30;;
17658;SDS011;8948;51.534;8.262;2022-08-19T06:20:09;32.67;;;18.75;;
17658;SDS011;8948;51.534;8.262;2022-08-19T06:25:13;34.90;;;19.83;;
17658;SDS011;8948;51.534;8.262;2022-08-19T06:30:14;22.48;;;14.88;;
17658;SDS011;8948;51.534;8.262;2022-08-19T06:35:15;26.05;;;14.05;;
17658;SDS011;8948;51.534;8.262;2022-08-19T06:40:15;29.88;;;19.73;;
17658;SDS011;8948;51.534;8.262;2022-08-19T06:45:16;26.27;;;19.25;;
17658;SDS011;8948;51.534;8.262;2022-08-19T06:50:17;28.73;;;17.95;;
17658;SDS011;8948;51.534;8.262;2022-08-19T06:55:18;23.00;;;15.50;;
17658;SDS011;8948;51.534;8.262;2022-08-19T07:00:19;24.15;;;16.77;;
17658;SDS011;8948;51.534;8.262;2022-08-19T07:05:19;22.13;;;15.57;;
17658;SDS011;8948;51.534;8.262;2022-08-19T07:10:20;24.98;;;14.27;;
17658;SDS011;8948;51.534;8.262;2022-08-19T07:15:21;19.55;;;12.60;;
17658;SDS011;8948;51.534;8.262;2022-08-19T07:20:23;25.40;;;14.73;;
17658;SDS011;8948;51.534;8.262;2022-08-19T07:25:23;22.38;;;14.82;;
17658;SDS011;8948;51.534;8.262;2022-08-19T07:30:24;25.27;;;14.93;;
17658;SDS011;8948;51.534;8.262;2022-08-19T07:35:25;28.95;;;17.85;;
17658;SDS011;8948;51.534;8.262;2022-08-19T07:40:25;28.92;;;14.98;;
17658;SDS011;8948;51.534;8.262;2022-08-19T07:45:26;18.98;;;10.73;;
17658;SDS011;8948;51.534;8.262;2022-08-19T07:50:28;20.52;;;12.77;;
17658;SDS011;8948;51.534;8.262;2022-08-19T07:55:29;19.70;;;13.43;;
17658;SDS011;8948;51.534;8.262;2022-08-19T08:00:30;20.73;;;9.45;;
17658;SDS011;8948;51.534;8.262;2022-08-19T08:05:31;20.17;;;11.45;;
17658;SDS011;8948;51.534;8.262;2022-08-19T08:10:50;16.55;;;10.57;;
17658;SDS011;8948;51.534;8.262;2022-08-19T08:15:50;13.40;;;8.73;;
17658;SDS011;8948;51.534;8.262;2022-08-19T08:20:51;19.23;;;9.27;;
17658;SDS011;8948;51.534;8.262;2022-08-19T08:25:54;18.17;;;11.75;;
17658;SDS011;8948;51.534;8.262;2022-08-19T08:30:57;15.60;;;11.65;;
17658;SDS011;8948;51.534;8.262;2022-08-19T08:35:58;17.90;;;10.20;;
17658;SDS011;8948;51.534;8.262;2022-08-19T08:41:05;17.25;;;10.18;;
17658;SDS011;8948;51.534;8.262;2022-08-19T08:46:17;15.15;;;9.75;;
17658;SDS011;8948;51.534;8.262;2022-08-19T08:51:23;16.88;;;10.15;;
17658;SDS011;8948;51.534;8.262;2022-08-19T08:56:28;18.25;;;9.05;;
17658;SDS011;8948;51.534;8.262;2022-08-19T09:01:30;14.10;;;8.52;;
17658;SDS011;8948;51.534;8.262;2022-08-19T09:17:23;13.00;;;10.27;;
17658;SDS011;8948;51.534;8.262;2022-08-19T09:22:30;20.83;;;10.55;;
17658;SDS011;8948;51.534;8.262;2022-08-19T09:27:31;16.73;;;10.10;;
17658;SDS011;8948;51.534;8.262;2022-08-19T09:32:32;17.02;;;9.57;;
17658;SDS011;8948;51.534;8.262;2022-08-19T09:37:33;13.85;;;9.38;;
17658;SDS011;8948;51.534;8.262;2022-08-19T09:42:34;14.48;;;10.27;;
17658;SDS011;8948;51.534;8.262;2022-08-19T09:47:35;13.27;;;10.27;;
17658;SDS011;8948;51.534;8.262;2022-08-19T09:52:38;12.07;;;10.38;;
17658;SDS011;8948;51.534;8.262;2022-08-19T09:57:38;13.35;;;9.80;;
17658;SDS011;8948;51.534;8.262;2022-08-19T10:02:39;16.20;;;10.90;;
17658;SDS011;8948;51.534;8.262;2022-08-19T10:07:40;18.42;;;12.50;;
17658;SDS011;8948;51.534;8.262;2022-08-19T10:12:40;12.52;;;9.88;;
17658;SDS011;8948;51.534;8.262;2022-08-19T10:17:41;10.07;;;8.40;;
17658;SDS011;8948;51.534;8.262;2022-08-19T10:22:41;12.93;;;8.18;;
17658;SDS011;8948;51.534;8.262;2022-08-19T10:27:43;16.48;;;10.02;;
17658;SDS011;8948;51.534;8.262;2022-08-19T10:32:44;14.52;;;8.90;;
17658;SDS011;8948;51.534;8.262;2022-08-19T10:37:45;11.88;;;8.48;;
17658;SDS011;8948;51.534;8.262;2022-08-19T10:42:46;10.05;;;7.25;;
17658;SDS011;8948;51.534;8.262;2022-08-19T10:47:46;8.55;;;6.10;;
17658;SDS011;8948;51.534;8.262;2022-08-19T10:52:48;6.57;;;5.50;;
17658;SDS011;8948;51.534;8.262;2022-08-19T10:57:49;10.85;;;6.85;;
17658;SDS011;8948;51.534;8.262;2022-08-19T11:02:52;12.35;;;6.55;;
17658;SDS011;8948;51.534;8.262;2022-08-19T11:07:53;10.20;;;6.72;;
17658;SDS011;8948;51.534;8.262;2022-08-19T11:12:53;10.57;;;6.28;;
17658;SDS011;8948;51.534;8.262;2022-08-19T11:17:56;10.35;;;6.93;;
17658;SDS011;8948;51.534;8.262;2022-08-19T11:22:56;11.63;;;7.60;;
17658;SDS011;8948;51.534;8.262;2022-08-19T11:27:57;8.65;;;6.50;;
17658;SDS011;8948;51.534;8.262;2022-08-19T11:32:57;7.13;;;4.57;;
17658;SDS011;8948;51.534;8.262;2022-08-19T11:38:00;9.30;;;4.53;;
17658;SDS011;8948;51.534;8.262;2022-08-19T11:43:02;9.55;;;4.28;;
17658;SDS011;8948;51.534;8.262;2022-08-19T11:48:04;8.32;;;4.72;;
17658;SDS011;8948;51.534;8.262;2022-08-19T11:53:04;8.68;;;4.25;;
17658;SDS011;8948;51.534;8.262;2022-08-19T11:58:05;7.72;;;3.95;;
17658;SDS011;8948;51.534;8.262;2022-08-19T12:03:07;4.57;;;3.30;;
17658;SDS011;8948;51.534;8.262;2022-08-19T12:08:08;4.65;;;3.67;;
17658;SDS011;8948;51.534;8.262;2022-08-19T12:13:09;3.78;;;2.75;;
17658;SDS011;8948;51.534;8.262;2022-08-19T12:18:10;4.47;;;2.92;;
17658;SDS011;8948;51.534;8.262;2022-08-19T12:23:10;3.75;;;2.40;;
17658;SDS011;8948;51.534;8.262;2022-08-19T12:28:11;4.03;;;2.75;;
17658;SDS011;8948;51.534;8.262;2022-08-19T12:33:13;8.32;;;3.72;;
17658;SDS011;8948;51.534;8.262;2022-08-19T12:38:14;3.42;;;3.05;;
17658;SDS011;8948;51.534;8.262;2022-08-19T12:43:14;4.95;;;3.53;;
17658;SDS011;8948;51.534;8.262;2022-08-19T12:48:19;5.15;;;3.80;;
17658;SDS011;8948;51.534;8.262;2022-08-19T12:53:20;5.53;;;3.70;;
17658;SDS011;8948;51.534;8.262;2022-08-19T12:58:20;5.15;;;3.90;;
17658;SDS011;8948;51.534;8.262;2022-08-19T13:03:21;7.68;;;4.50;;
17658;SDS011;8948;51.534;8.262;2022-08-19T13:08:27;5.88;;;3.88;;
17658;SDS011;8948;51.534;8.262;2022-08-19T13:13:28;7.03;;;4.10;;
17658;SDS011;8948;51.534;8.262;2022-08-19T13:18:28;4.97;;;3.75;;
17658;SDS011;8948;51.534;8.262;2022-08-19T13:23:29;9.48;;;4.30;;
17658;SDS011;8948;51.534;8.262;2022-08-19T13:28:31;6.05;;;3.83;;
17658;SDS011;8948;51.534;8.262;2022-08-19T13:33:52;6.78;;;3.03;;
17658;SDS011;8948;51.534;8.262;2022-08-19T13:38:52;5.93;;;3.58;;
17658;SDS011;8948;51.534;8.262;2022-08-19T13:43:53;4.88;;;3.35;;
17658;SDS011;8948;51.534;8.262;2022-08-19T13:48:54;8.45;;;3.40;;
17658;SDS011;8948;51.534;8.262;2022-08-19T13:53:55;7.75;;;3.40;;
17658;SDS011;8948;51.534;8.262;2022-08-19T13:58:56;7.38;;;3.60;;
17658;SDS011;8948;51.534;8.262;2022-08-19T14:03:57;5.75;;;3.75;;
17658;SDS011;8948;51.534;8.262;2022-08-19T14:08:57;4.30;;;3.33;;
17658;SDS011;8948;51.534;8.262;2022-08-19T14:13:58;9.45;;;4.38;;
17658;SDS011;8948;51.534;8.262;2022-08-19T14:18:59;5.80;;;4.10;;
17658;SDS011;8948;51.534;8.262;2022-08-19T14:23:59;5.88;;;4.07;;
17658;SDS011;8948;51.534;8.262;2022-08-19T14:29:01;9.30;;;5.03;;
17658;SDS011;8948;51.534;8.262;2022-08-19T14:34:01;7.47;;;5.07;;
17658;SDS011;8948;51.534;8.262;2022-08-19T14:39:02;7.03;;;5.07;;
17658;SDS011;8948;51.534;8.262;2022-08-19T14:44:04;6.53;;;5.20;;
17658;SDS011;8948;51.534;8.262;2022-08-19T14:49:04;8.82;;;5.00;;
17658;SDS011;8948;51.534;8.262;2022-08-19T14:54:05;11.65;;;4.68;;
17658;SDS011;8948;51.534;8.262;2022-08-19T14:59:06;12.85;;;4.93;;
17658;SDS011;8948;51.534;8.262;2022-08-19T15:04:06;8.98;;;4.75;;
17658;SDS011;8948;51.534;8.262;2022-08-19T15:09:07;9.50;;;4.70;;
17658;SDS011;8948;51.534;8.262;2022-08-19T15:14:08;8.18;;;4.93;;
17658;SDS011;8948;51.534;8.262;2022-08-19T15:19:16;7.22;;;4.85;;
17658;SDS011;8948;51.534;8.262;2022-08-19T15:24:17;7.07;;;5.22;;
17658;SDS011;8948;51.534;8.262;2022-08-19T15:29:18;7.00;;;5.15;;
17658;SDS011;8948;51.534;8.262;2022-08-19T15:34:19;5.30;;;4.28;;
17658;SDS011;8948;51.534;8.262;2022-08-19T15:39:20;5.53;;;4.63;;
17658;SDS011;8948;51.534;8.262;2022-08-19T15:44:21;6.90;;;3.95;;
17658;SDS011;8948;51.534;8.262;2022-08-19T15:49:21;7.13;;;4.50;;
17658;SDS011;8948;51.534;8.262;2022-08-19T15:54:22;6.57;;;4.43;;
17658;SDS011;8948;51.534;8.262;2022-08-19T15:59:23;6.13;;;4.38;;
17658;SDS011;8948;51.534;8.262;2022-08-19T16:04:42;6.45;;;4.70;;
17658;SDS011;8948;51.534;8.262;2022-08-19T16:10:03;6.53;;;4.95;;
17658;SDS011;8948;51.534;8.262;2022-08-19T16:15:04;8.80;;;5.10;;
17658;SDS011;8948;51.534;8.262;2022-08-19T16:20:07;8.07;;;5.10;;
17658;SDS011;8948;51.534;8.262;2022-08-19T16:25:10;9.15;;;5.13;;
17658;SDS011;8948;51.534;8.262;2022-08-19T16:30:10;7.00;;;5.15;;
17658;SDS011;8948;51.534;8.262;2022-08-19T16:35:11;6.13;;;5.25;;
17658;SDS011;8948;51.534;8.262;2022-08-19T16:40:12;10.60;;;5.90;;
17658;SDS011;8948;51.534;8.262;2022-08-19T16:45:12;7.75;;;5.88;;
17658;SDS011;8948;51.534;8.262;2022-08-19T16:50:13;20.13;;;7.38;;
17658;SDS011;8948;51.534;8.262;2022-08-19T16:55:13;13.88;;;7.50;;
17658;SDS011;8948;51.534;8.262;2022-08-19T17:00:15;9.73;;;7.03;;
17658;SDS011;8948;51.534;8.262;2022-08-19T17:05:16;12.95;;;7.18;;
17658;SDS011;8948;51.534;8.262;2022-08-19T17:10:17;10.93;;;7.13;;
17658;SDS011;8948;51.534;8.262;2022-08-19T17:15:18;17.35;;;7.53;;
17658;SDS011;8948;51.534;8.262;2022-08-19T17:20:19;13.35;;;6.45;;
17658;SDS011;8948;51.534;8.262;2022-08-19T17:25:19;14.90;;;6.88;;
17658;SDS011;8948;51.534;8.262;2022-08-19T17:30:20;11.45;;;6.38;;
17658;SDS011;8948;51.534;8.262;2022-08-19T17:35:22;10.00;;;6.22;;
17658;SDS011;8948;51.534;8.262;2022-08-19T17:40:22;14.95;;;5.82;;
17658;SDS011;8948;51.534;8.262;2022-08-19T17:45:25;13.60;;;6.57;;
17658;SDS011;8948;51.534;8.262;2022-08-19T17:50:26;8.23;;;6.20;;
17658;SDS011;8948;51.534;8.262;2022-08-19T17:55:28;8.85;;;5.95;;
17658;SDS011;8948;51.534;8.262;2022-08-19T18:00:29;17.30;;;5.95;;
17658;SDS011;8948;51.534;8.262;2022-08-19T18:05:32;7.85;;;5.25;;
17658;SDS011;8948;51.534;8.262;2022-08-19T18:10:35;8.63;;;5.15;;
17658;SDS011;8948;51.534;8.262;2022-08-19T18:15:36;13.23;;;5.70;;
17658;SDS011;8948;51.534;8.262;2022-08-19T18:20:37;13.57;;;4.72;;
17658;SDS011;8948;51.534;8.262;2022-08-19T18:25:38;6.53;;;4.53;;
17658;SDS011;8948;51.534;8.262;2022-08-19T18:30:38;8.63;;;4.80;;
17658;SDS011;8948;51.534;8.262;2022-08-19T18:35:40;10.75;;;4.38;;
17658;SDS011;8948;51.534;8.262;2022-08-19T18:40:47;7.68;;;4.35;;
17658;SDS011;8948;51.534;8.262;2022-08-19T18:46:06;9.02;;;4.57;;
17658;SDS011;8948;51.534;8.262;2022-08-19T18:51:25;8.93;;;4.18;;
17658;SDS011;8948;51.534;8.262;2022-08-19T18:56:29;8.98;;;3.80;;
17658;SDS011;8948;51.534;8.262;2022-08-19T19:01:35;11.98;;;4.65;;
17658;SDS011;8948;51.534;8.262;2022-08-19T19:06:38;13.10;;;5.07;;
17658;SDS011;8948;51.534;8.262;2022-08-19T19:11:42;10.50;;;4.72;;
17658;SDS011;8948;51.534;8.262;2022-08-19T19:16:44;8.88;;;4.47;;
17658;SDS011;8948;51.534;8.262;2022-08-19T19:21:46;9.85;;;4.95;;
17658;SDS011;8948;51.534;8.262;2022-08-19T19:26:49;11.18;;;5.75;;
17658;SDS011;8948;51.534;8.262;2022-08-19T19:31:51;10.90;;;5.72;;
17658;SDS011;8948;51.534;8.262;2022-08-19T19:36:52;10.20;;;5.72;;
17658;SDS011;8948;51.534;8.262;2022-08-19T19:41:52;10.07;;;6.07;;
17658;SDS011;8948;51.534;8.262;2022-08-19T19:46:53;10.18;;;6.30;;
17658;SDS011;8948;51.534;8.262;2022-08-19T19:51:55;9.90;;;5.85;;
17658;SDS011;8948;51.534;8.262;2022-08-19T19:56:56;11.73;;;6.63;;
17658;SDS011;8948;51.534;8.262;2022-08-19T20:01:56;26.52;;;6.75;;
17658;SDS011;8948;51.534;8.262;2022-08-19T20:06:57;12.63;;;6.40;;
17658;SDS011;8948;51.534;8.262;2022-08-19T20:11:58;9.43;;;6.32;;
17658;SDS011;8948;51.534;8.262;2022-08-19T20:16:58;21.95;;;6.88;;
17658;SDS011;8948;51.534;8.262;2022-08-19T20:21:59;10.43;;;6.45;;
17658;SDS011;8948;51.534;8.262;2022-08-19T20:27:00;11.10;;;6.90;;
17658;SDS011;8948;51.534;8.262;2022-08-19T20:32:02;12.07;;;6.70;;
17658;SDS011;8948;51.534;8.262;2022-08-19T20:37:03;15.15;;;6.78;;
17658;SDS011;8948;51.534;8.262;2022-08-19T20:42:04;12.00;;;7.10;;
17658;SDS011;8948;51.534;8.262;2022-08-19T20:47:05;13.60;;;8.38;;
17658;SDS011;8948;51.534;8.262;2022-08-19T20:52:05;18.67;;;8.88;;
17658;SDS011;8948;51.534;8.262;2022-08-19T20:57:06;17.45;;;10.43;;
17658;SDS011;8948;51.534;8.262;2022-08-19T21:02:07;21.45;;;11.23;;
17658;SDS011;8948;51.534;8.262;2022-08-19T21:07:08;41.42;;;11.82;;
17658;SDS011;8948;51.534;8.262;2022-08-19T21:12:10;23.70;;;11.57;;
17658;SDS011;8948;51.534;8.262;2022-08-19T21:17:12;23.80;;;12.10;;
17658;SDS011;8948;51.534;8.262;2022-08-19T21:22:12;21.85;;;12.30;;
17658;SDS011;8948;51.534;8.262;2022-08-19T21:27:13;21.13;;;12.68;;
17658;SDS011;8948;51.534;8.262;2022-08-19T21:32:14;18.40;;;11.73;;
17658;SDS011;8948;51.534;8.262;2022-08-19T21:37:14;20.95;;;13.52;;
17658;SDS011;8948;51.534;8.262;2022-08-19T21:42:16;26.83;;;13.15;;
17658;SDS011;8948;51.534;8.262;2022-08-19T21:47:16;31.13;;;13.70;;
17658;SDS011;8948;51.534;8.262;2022-08-19T21:52:24;19.55;;;11.30;;
17658;SDS011;8948;51.534;8.262;2022-08-19T21:57:25;22.65;;;12.05;;
17658;SDS011;8948;51.534;8.262;2022-08-19T22:02:26;23.52;;;13.07;;
17658;SDS011;8948;51.534;8.262;2022-08-19T22:07:27;24.50;;;13.02;;
17658;SDS011;8948;51.534;8.262;2022-08-19T22:12:29;24.08;;;14.70;;
17658;SDS011;8948;51.534;8.262;2022-08-19T22:17:31;19.80;;;12.68;;
17658;SDS011;8948;51.534;8.262;2022-08-19T22:22:32;30.15;;;14.80;;
17658;SDS011;8948;51.534;8.262;2022-08-19T22:27:33;22.42;;;14.38;;
17658;SDS011;8948;51.534;8.262;2022-08-19T22:32:35;26.52;;;14.65;;
17658;SDS011;8948;51.534;8.262;2022-08-19T22:37:36;24.35;;;14.77;;
17658;SDS011;8948;51.534;8.262;2022-08-19T22:42:37;26.58;;;15.35;;
17658;SDS011;8948;51.534;8.262;2022-08-19T22:47:38;23.05;;;14.80;;
17658;SDS011;8948;51.534;8.262;2022-08-19T22:52:39;39.88;;;15.65;;
17658;SDS011;8948;51.534;8.262;2022-08-19T22:57:42;25.77;;;16.40;;
17658;SDS011;8948;51.534;8.262;2022-08-19T23:02:43;27.00;;;16.95;;
17658;SDS011;8948;51.534;8.262;2022-08-19T23:07:45;28.08;;;18.17;;
17658;SDS011;8948;51.534;8.262;2022-08-19T23:12:46;28.63;;;18.85;;
17658;SDS011;8948;51.534;8.262;2022-08-19T23:17:47;27.65;;;19.38;;
17658;SDS011;8948;51.534;8.262;2022-08-19T23:22:48;31.77;;;19.83;;
17658;SDS011;8948;51.534;8.262;2022-08-19T23:27:49;37.75;;;20.98;;
17658;SDS011;8948;51.534;8.262;2022-08-19T23:33:13;33.10;;;19.92;;
17658;SDS011;8948;51.534;8.262;2022-08-19T23:38:14;32.33;;;20.77;;
17658;SDS011;8948;51.534;8.262;2022-08-19T23:43:15;31.30;;;19.85;;
17658;SDS011;8948;51.534;8.262;2022-08-19T23:48:15;31.05;;;19.88;;
17658;SDS011;8948;51.534;8.262;2022-08-19T23:53:16;25.92;;;19.40;;
17658;SDS011;8948;51.534;8.262;2022-08-19T23:58:18;28.20;;;19.30;;
